sensor_id;sensor_type;location;lat;lon;timestamp;pressure;altitude;pressure_sealevel;temperature;humidity
43681;BME280;29281;50.356;30.894;2023-01-10T06:07:41;100995.02;;;-5.36;87.01
43681;BME280;29281;50.356;30.894;2023-01-10T06:08:52;100988.12;;;-5.36;86.65
43681;BME280;29281;50.356;30.894;2023-01-10T06:09:57;100995.02;;;-5.33;86.78
43681;BME280;29281;50.356;30.894;2023-01-10T06:11:05;100995.77;;;-5.46;85.77
43681;BME280;29281;50.356;30.894;2023-01-10T06:12:06;100993.19;;;-5.45;87.35
43681;BME280;29281;50.356;30.894;2023-01-10T06:13:09;101005.27;;;-5.45;87.26
43681;BME280;29281;50.356;30.894;2023-01-10T06:14:13;101000.13;;;-5.42;86.68
43681;BME280;29281;50.356;30.894;2023-01-10T06:15:19;101004.61;;;-5.24;86.85
43681;BME280;29281;50.356;30.894;2023-01-10T06:16:23;100998.55;;;-5.26;86.16
43681;BME280;29281;50.356;30.894;2023-01-10T06:17:26;101001.13;;;-5.26;85.67
43681;BME280;29281;50.356;30.894;2023-01-10T06:18:33;101007.92;;;-5.39;85.37
43681;BME280;29281;50.356;30.894;2023-01-10T06:21:03;101016.52;;;-5.42;86.14
43681;BME280;29281;50.356;30.894;2023-01-10T06:22:12;101013.95;;;-5.40;85.60
43681;BME280;29281;50.356;30.894;2023-01-10T06:23:15;101019.13;;;-5.40;85.57
43681;BME280;29281;50.356;30.894;2023-01-10T06:24:19;101020.94;;;-5.30;85.42
43681;BME280;29281;50.356;30.894;2023-01-10T06:25:22;101027.89;;;-5.26;84.89
43681;BME280;29281;50.356;30.894;2023-01-10T06:26:26;101018.34;;;-5.32;85.10
43681;BME280;29281;50.356;30.894;2023-01-10T06:27:30;101021.80;;;-5.31;84.42
43681;BME280;29281;50.356;30.894;2023-01-10T06:28:32;101030.43;;;-5.31;84.21
43681;BME280;29281;50.356;30.894;2023-01-10T06:29:41;101023.48;;;-5.35;84.06
43681;BME280;29281;50.356;30.894;2023-01-10T06:30:45;101023.48;;;-5.35;84.33
43681;BME280;29281;50.356;30.894;2023-01-10T06:31:48;101023.52;;;-5.32;84.75
43681;BME280;29281;50.356;30.894;2023-01-10T06:32:52;101026.08;;;-5.36;83.62
43681;BME280;29281;50.356;30.894;2023-01-10T06:33:55;101018.30;;;-5.38;83.63
43681;BME280;29281;50.356;30.894;2023-01-10T06:34:58;101028.54;;;-5.47;83.39
43681;BME280;29281;50.356;30.894;2023-01-10T06:36:03;101028.67;;;-5.33;83.44
43681;BME280;29281;50.356;30.894;2023-01-10T06:37:07;101019.22;;;-5.29;83.07
43681;BME280;29281;50.356;30.894;2023-01-10T06:38:13;101032.11;;;-5.37;82.92
43681;BME280;29281;50.356;30.894;2023-01-10T06:39:16;101035.49;;;-5.43;82.99
43681;BME280;29281;50.356;30.894;2023-01-10T06:40:20;101032.11;;;-5.34;82.98
43681;BME280;29281;50.356;30.894;2023-01-10T06:41:23;101039.05;;;-5.32;82.50
43681;BME280;29281;50.356;30.894;2023-01-10T06:42:26;101036.55;;;-5.24;82.17
43681;BME280;29281;50.356;30.894;2023-01-10T11:09:02;101092.92;;;-1.66;62.16
43681;BME280;29281;50.356;30.894;2023-01-10T11:10:18;101096.31;;;-1.46;61.78
43681;BME280;29281;50.356;30.894;2023-01-10T11:11:24;101092.85;;;-1.49;61.59
43681;BME280;29281;50.356;30.894;2023-01-10T11:12:30;101101.45;;;-1.30;62.69
43681;BME280;29281;50.356;30.894;2023-01-10T11:13:39;101105.16;;;-1.85;60.67
43681;BME280;29281;50.356;30.894;2023-01-10T11:14:48;101106.00;;;-1.83;61.84
43681;BME280;29281;50.356;30.894;2023-01-10T11:15:50;101105.98;;;-1.77;61.31
43681;BME280;29281;50.356;30.894;2023-01-10T11:17:06;101099.09;;;-1.94;61.95
43681;BME280;29281;50.356;30.894;2023-01-10T11:18:05;101095.57;;;-1.75;62.45
43681;BME280;29281;50.356;30.894;2023-01-10T11:19:26;101096.39;;;-1.65;61.99
43681;BME280;29281;50.356;30.894;2023-01-10T11:20:29;101101.52;;;-1.44;62.26
43681;BME280;29281;50.356;30.894;2023-01-10T11:21:33;101104.20;;;-1.61;61.49
43681;BME280;29281;50.356;30.894;2023-01-10T11:22:46;101105.06;;;-1.60;62.27
43681;BME280;29281;50.356;30.894;2023-01-10T11:23:50;101102.40;;;-1.48;62.16
43681;BME280;29281;50.356;30.894;2023-01-10T11:24:59;101106.72;;;-1.38;61.85
43681;BME280;29281;50.356;30.894;2023-01-10T11:27:25;101120.49;;;-1.19;60.65
43681;BME280;29281;50.356;30.894;2023-01-10T11:28:30;101116.21;;;-1.28;61.73
43681;BME280;29281;50.356;30.894;2023-01-10T11:30:39;101128.44;;;-1.42;60.70
43681;BME280;29281;50.356;30.894;2023-01-10T11:31:42;101130.96;;;-1.22;60.79
43681;BME280;29281;50.356;30.894;2023-01-10T11:34:00;101128.30;;;-1.16;60.51
43681;BME280;29281;50.356;30.894;2023-01-10T11:35:08;101126.57;;;-1.19;61.35
43681;BME280;29281;50.356;30.894;2023-01-10T11:36:12;101126.69;;;-1.38;60.89
43681;BME280;29281;50.356;30.894;2023-01-10T11:37:23;101135.33;;;-1.30;60.35
43681;BME280;29281;50.356;30.894;2023-01-10T11:38:28;101135.17;;;-1.03;60.40
43681;BME280;29281;50.356;30.894;2023-01-10T11:39:31;101133.50;;;-1.12;59.84
43681;BME280;29281;50.356;30.894;2023-01-10T11:40:35;101134.47;;;-1.34;60.72
43681;BME280;29281;50.356;30.894;2023-01-10T11:41:40;101134.51;;;-1.38;61.39
43681;BME280;29281;50.356;30.894;2023-01-10T11:42:44;101137.94;;;-1.32;61.27
43681;BME280;29281;50.356;30.894;2023-01-10T11:43:49;101137.06;;;-1.28;60.27
43681;BME280;29281;50.356;30.894;2023-01-10T11:44:53;101138.92;;;-1.59;61.79
43681;BME280;29281;50.356;30.894;2023-01-10T11:45:58;101144.06;;;-1.39;60.79
43681;BME280;29281;50.356;30.894;2023-01-10T11:47:04;101130.11;;;-1.29;61.51
43681;BME280;29281;50.356;30.894;2023-01-10T11:48:18;101128.50;;;-1.54;60.23
43681;BME280;29281;50.356;30.894;2023-01-10T11:49:28;101137.20;;;-1.67;60.77
43681;BME280;29281;50.356;30.894;2023-01-10T11:50:32;101137.27;;;-1.87;60.69
43681;BME280;29281;50.356;30.894;2023-01-10T11:51:36;101137.27;;;-1.98;62.17
43681;BME280;29281;50.356;30.894;2023-01-10T11:52:42;101132.03;;;-1.78;62.05
43681;BME280;29281;50.356;30.894;2023-01-10T11:53:49;101134.63;;;-1.81;62.97
43681;BME280;29281;50.356;30.894;2023-01-10T11:54:57;101131.04;;;-1.40;61.84
43681;BME280;29281;50.356;30.894;2023-01-10T11:56:02;101121.42;;;-1.31;61.83
43681;BME280;29281;50.356;30.894;2023-01-10T11:57:08;101124.95;;;-1.38;61.03
43681;BME280;29281;50.356;30.894;2023-01-10T11:58:12;101119.77;;;-1.49;62.09
43681;BME280;29281;50.356;30.894;2023-01-10T11:59:18;101132.84;;;-1.64;60.95
43681;BME280;29281;50.356;30.894;2023-01-10T12:00:22;101136.41;;;-1.95;60.89
43681;BME280;29281;50.356;30.894;2023-01-10T12:01:52;101124.25;;;-1.84;62.83
43681;BME280;29281;50.356;30.894;2023-01-10T12:02:51;101131.16;;;-1.74;62.16
43681;BME280;29281;50.356;30.894;2023-01-10T12:03:59;101128.59;;;-1.95;62.25
43681;BME280;29281;50.356;30.894;2023-01-10T12:05:16;101123.39;;;-1.95;62.38
43681;BME280;29281;50.356;30.894;2023-01-10T12:06:30;101126.81;;;-1.75;63.62
43681;BME280;29281;50.356;30.894;2023-01-10T12:08:59;101120.75;;;-1.83;63.47
43681;BME280;29281;50.356;30.894;2023-01-10T12:10:02;101119.01;;;-1.78;62.02
43681;BME280;29281;50.356;30.894;2023-01-10T12:13:22;101119.97;;;-2.28;63.37
43681;BME280;29281;50.356;30.894;2023-01-10T12:14:25;101130.38;;;-2.28;63.28
43681;BME280;29281;50.356;30.894;2023-01-10T12:15:30;101124.31;;;-2.21;63.51
43681;BME280;29281;50.356;30.894;2023-01-10T12:16:34;101118.23;;;-2.29;63.37
43681;BME280;29281;50.356;30.894;2023-01-10T12:17:37;101113.92;;;-2.33;64.01
43681;BME280;29281;50.356;30.894;2023-01-10T12:18:40;101108.70;;;-2.21;63.97
43681;BME280;29281;50.356;30.894;2023-01-10T12:19:43;101111.30;;;-2.15;63.75
43681;BME280;29281;50.356;30.894;2023-01-10T12:20:50;101113.07;;;-2.47;63.72
43681;BME280;29281;50.356;30.894;2023-01-10T12:21:57;101109.61;;;-2.60;64.94
43681;BME280;29281;50.356;30.894;2023-01-10T12:23:04;101123.45;;;-2.56;64.82
43681;BME280;29281;50.356;30.894;2023-01-10T12:24:17;101126.92;;;-2.39;64.71
43681;BME280;29281;50.356;30.894;2023-01-10T12:26:28;101126.92;;;-2.39;64.66
43681;BME280;29281;50.356;30.894;2023-01-10T12:27:32;101120.86;;;-2.32;63.79
43681;BME280;29281;50.356;30.894;2023-01-10T12:28:36;101119.95;;;-2.13;63.87
43681;BME280;29281;50.356;30.894;2023-01-10T12:29:43;101113.88;;;-2.12;63.46
43681;BME280;29281;50.356;30.894;2023-01-10T12:30:46;101143.37;;;-2.13;62.72
43681;BME280;29281;50.356;30.894;2023-01-10T12:31:53;101122.58;;;-2.17;63.19
43681;BME280;29281;50.356;30.894;2023-01-10T12:32:56;101131.25;;;-2.18;63.22
43681;BME280;29281;50.356;30.894;2023-01-10T12:34:06;101127.80;;;-2.37;63.83
43681;BME280;29281;50.356;30.894;2023-01-10T12:35:12;101126.05;;;-2.41;62.85
43681;BME280;29281;50.356;30.894;2023-01-10T12:38:02;101140.78;;;-2.28;62.90
43681;BME280;29281;50.356;30.894;2023-01-10T12:40:18;101155.52;;;-2.02;63.08
43681;BME280;29281;50.356;30.894;2023-01-10T12:41:28;101147.73;;;-2.21;62.58
43681;BME280;29281;50.356;30.894;2023-01-10T12:42:54;101157.27;;;-2.20;63.16
43681;BME280;29281;50.356;30.894;2023-01-10T12:44:20;101155.53;;;-2.25;62.87
43681;BME280;29281;50.356;30.894;2023-01-10T12:45:23;101152.08;;;-2.33;63.00
43681;BME280;29281;50.356;30.894;2023-01-10T12:46:36;101149.45;;;-2.24;63.07
43681;BME280;29281;50.356;30.894;2023-01-10T12:47:49;101158.16;;;-2.30;62.31
43681;BME280;29281;50.356;30.894;2023-01-10T12:50:12;101167.68;;;-2.20;62.75
43681;BME280;29281;50.356;30.894;2023-01-10T12:51:19;101165.94;;;-2.27;62.18
43681;BME280;29281;50.356;30.894;2023-01-10T12:53:36;101172.87;;;-2.06;62.66
43681;BME280;29281;50.356;30.894;2023-01-10T12:54:41;101180.69;;;-2.01;62.15
43681;BME280;29281;50.356;30.894;2023-01-10T12:55:46;101177.19;;;-1.96;62.18
43681;BME280;29281;50.356;30.894;2023-01-10T12:56:51;101175.47;;;-2.09;61.33
43681;BME280;29281;50.356;30.894;2023-01-10T12:57:56;101166.80;;;-2.06;62.60
43681;BME280;29281;50.356;30.894;2023-01-10T12:59:02;101182.44;;;-2.29;61.48
43681;BME280;29281;50.356;30.894;2023-01-10T13:00:14;101179.83;;;-2.20;62.17
43681;BME280;29281;50.356;30.894;2023-01-10T13:01:13;101183.30;;;-2.18;61.97
43681;BME280;29281;50.356;30.894;2023-01-10T13:02:18;101182.44;;;-2.31;61.49
43681;BME280;29281;50.356;30.894;2023-01-10T13:03:27;101171.16;;;-2.36;61.87
43681;BME280;29281;50.356;30.894;2023-01-10T13:04:34;101177.20;;;-2.26;61.54
43681;BME280;29281;50.356;30.894;2023-01-10T13:05:39;101177.23;;;-2.17;62.12
43681;BME280;29281;50.356;30.894;2023-01-10T13:06:45;101172.87;;;-2.24;61.66
43681;BME280;29281;50.356;30.894;2023-01-10T13:07:49;101165.08;;;-2.21;61.79
43681;BME280;29281;50.356;30.894;2023-01-10T13:08:54;101159.88;;;-2.21;61.83
43681;BME280;29281;50.356;30.894;2023-01-10T13:10:00;101153.81;;;-2.32;61.17
43681;BME280;29281;50.356;30.894;2023-01-10T13:11:06;101168.55;;;-2.36;61.00
43681;BME280;29281;50.356;30.894;2023-01-10T13:12:21;101166.80;;;-2.41;61.43
43681;BME280;29281;50.356;30.894;2023-01-10T13:14:38;101173.72;;;-2.59;60.89
43681;BME280;29281;50.356;30.894;2023-01-10T13:15:46;101172.86;;;-2.56;61.30
43681;BME280;29281;50.356;30.894;2023-01-10T13:16:51;101171.99;;;-2.67;62.06
43681;BME280;29281;50.356;30.894;2023-01-10T21:02:09;101349.66;;;-3.94;66.06
43681;BME280;29281;50.356;30.894;2023-01-10T21:03:13;101349.69;;;-3.91;65.98
43681;BME280;29281;50.356;30.894;2023-01-10T21:04:17;101350.59;;;-3.87;65.30
43681;BME280;29281;50.356;30.894;2023-01-10T21:05:20;101343.59;;;-3.95;66.41
43681;BME280;29281;50.356;30.894;2023-01-10T21:06:24;101352.22;;;-3.97;65.30
43681;BME280;29281;50.356;30.894;2023-01-10T21:07:28;101351.34;;;-4.01;65.40
43681;BME280;29281;50.356;30.894;2023-01-10T21:08:32;101341.05;;;-3.90;65.79
43681;BME280;29281;50.356;30.894;2023-01-10T21:09:35;101351.50;;;-3.81;66.25
43681;BME280;29281;50.356;30.894;2023-01-10T21:10:41;101354.81;;;-3.97;64.91
43681;BME280;29281;50.356;30.894;2023-01-10T21:11:43;101357.56;;;-3.83;66.16
43681;BME280;29281;50.356;30.894;2023-01-10T21:12:48;101360.77;;;-4.07;66.18
43681;BME280;29281;50.356;30.894;2023-01-10T21:13:52;101352.21;;;-4.00;66.78
43681;BME280;29281;50.356;30.894;2023-01-10T21:14:56;101360.02;;;-3.99;66.52
43681;BME280;29281;50.356;30.894;2023-01-10T21:16:00;101358.34;;;-3.91;66.86
43681;BME280;29281;50.356;30.894;2023-01-10T21:17:05;101356.53;;;-4.01;67.77
43681;BME280;29281;50.356;30.894;2023-01-10T21:18:09;101362.65;;;-3.93;67.66
43681;BME280;29281;50.356;30.894;2023-01-10T21:19:13;101349.78;;;-3.83;68.90
43681;BME280;29281;50.356;30.894;2023-01-10T21:20:17;101367.94;;;-3.83;68.10
43681;BME280;29281;50.356;30.894;2023-01-10T21:21:22;101368.92;;;-3.71;68.50
43681;BME280;29281;50.356;30.894;2023-01-10T21:22:24;101352.25;;;-3.94;67.48
43681;BME280;29281;50.356;30.894;2023-01-10T21:23:28;101372.82;;;-4.12;65.87
43681;BME280;29281;50.356;30.894;2023-01-10T21:24:33;101372.14;;;-3.98;66.00
43681;BME280;29281;50.356;30.894;2023-01-10T21:25:40;101378.08;;;-4.06;64.89
43681;BME280;29281;50.356;30.894;2023-01-10T21:27:54;101367.84;;;-3.93;65.78
43681;BME280;29281;50.356;30.894;2023-01-10T21:28:57;101376.52;;;-3.91;65.34
43681;BME280;29281;50.356;30.894;2023-01-10T21:30:00;101372.98;;;-3.96;64.38
43681;BME280;29281;50.356;30.894;2023-01-10T21:31:04;101387.66;;;-4.01;63.80
43681;BME280;29281;50.356;30.894;2023-01-10T21:32:09;101384.08;;;-4.13;64.19
43681;BME280;29281;50.356;30.894;2023-01-10T21:33:14;101380.64;;;-4.09;64.63
43681;BME280;29281;50.356;30.894;2023-01-10T21:34:17;101379.75;;;-4.11;64.52
43681;BME280;29281;50.356;30.894;2023-01-10T21:35:21;101383.96;;;-4.22;65.19
43681;BME280;29281;50.356;30.894;2023-01-10T21:36:25;101374.58;;;-4.13;65.77
43681;BME280;29281;50.356;30.894;2023-01-10T21:37:27;101375.45;;;-4.09;65.45
43681;BME280;29281;50.356;30.894;2023-01-10T21:38:31;101374.48;;;-4.20;65.09
43681;BME280;29281;50.356;30.894;2023-01-10T21:39:35;101369.37;;;-4.11;64.66
43681;BME280;29281;50.356;30.894;2023-01-10T21:40:38;101371.23;;;-4.01;66.58
43681;BME280;29281;50.356;30.894;2023-01-10T21:41:42;101380.66;;;-4.08;64.63
43681;BME280;29281;50.356;30.894;2023-01-10T21:43:04;101368.56;;;-4.07;64.37
43681;BME280;29281;50.356;30.894;2023-01-10T21:44:09;101370.30;;;-4.06;65.05
43681;BME280;29281;50.356;30.894;2023-01-10T21:45:12;101372.98;;;-3.96;65.42
43681;BME280;29281;50.356;30.894;2023-01-10T21:46:17;101374.83;;;-3.87;66.44
43681;BME280;29281;50.356;30.894;2023-01-10T21:47:20;101371.27;;;-3.95;65.20
43681;BME280;29281;50.356;30.894;2023-01-10T21:48:22;101379.83;;;-4.05;65.31
43681;BME280;29281;50.356;30.894;2023-01-10T21:49:25;101374.67;;;-4.02;65.77
43681;BME280;29281;50.356;30.894;2023-01-10T21:50:29;101377.21;;;-4.07;66.15
43681;BME280;29281;50.356;30.894;2023-01-10T21:51:35;101374.62;;;-4.07;66.15
43681;BME280;29281;50.356;30.894;2023-01-10T21:52:38;101378.12;;;-4.03;65.45
43681;BME280;29281;50.356;30.894;2023-01-10T21:53:40;101379.83;;;-4.05;64.97
43681;BME280;29281;50.356;30.894;2023-01-10T21:54:46;101382.34;;;-4.11;65.20
43681;BME280;29281;50.356;30.894;2023-01-10T21:55:49;101376.33;;;-4.09;64.45
43681;BME280;29281;50.356;30.894;2023-01-10T21:56:53;101374.45;;;-4.22;65.24
43681;BME280;29281;50.356;30.894;2023-01-10T21:57:57;101366.05;;;-4.00;66.19
43681;BME280;29281;50.356;30.894;2023-01-10T21:58:59;101359.94;;;-4.05;65.21
43681;BME280;29281;50.356;30.894;2023-01-10T22:00:03;101363.23;;;-4.21;65.89
43681;BME280;29281;50.356;30.894;2023-01-10T22:01:07;101353.83;;;-4.10;66.92
43681;BME280;29281;50.356;30.894;2023-01-10T22:02:12;101353.73;;;-4.20;65.94
43681;BME280;29281;50.356;30.894;2023-01-10T22:03:17;101358.75;;;-4.36;64.66
43681;BME280;29281;50.356;30.894;2023-01-10T22:04:21;101351.92;;;-4.29;66.16
43681;BME280;29281;50.356;30.894;2023-01-10T22:05:28;101350.20;;;-4.29;66.04
43681;BME280;29281;50.356;30.894;2023-01-10T22:06:32;101360.53;;;-4.32;65.02
43681;BME280;29281;50.356;30.894;2023-01-10T22:07:36;101364.61;;;-4.52;65.47
43681;BME280;29281;50.356;30.894;2023-01-10T22:08:41;101352.37;;;-4.64;65.68
43681;BME280;29281;50.356;30.894;2023-01-10T22:09:44;101361.08;;;-4.60;67.22
43681;BME280;29281;50.356;30.894;2023-01-10T22:10:48;101354.34;;;-4.44;66.97
43681;BME280;29281;50.356;30.894;2023-01-10T22:11:52;101364.88;;;-4.28;67.25
43681;BME280;29281;50.356;30.894;2023-01-10T22:12:56;101365.64;;;-4.38;66.85
43681;BME280;29281;50.356;30.894;2023-01-10T22:14:00;101397.60;;;-4.39;66.62
43681;BME280;29281;50.356;30.894;2023-01-10T22:15:03;101381.22;;;-4.36;66.67
43681;BME280;29281;50.356;30.894;2023-01-10T22:16:10;101380.34;;;-4.37;66.48
43681;BME280;29281;50.356;30.894;2023-01-10T22:17:14;101399.25;;;-4.47;66.61
43681;BME280;29281;50.356;30.894;2023-01-10T22:18:17;101405.15;;;-4.57;66.25
43681;BME280;29281;50.356;30.894;2023-01-10T22:19:21;101406.95;;;-4.51;66.71
43681;BME280;29281;50.356;30.894;2023-01-10T22:20:25;101400.99;;;-4.46;67.12
43681;BME280;29281;50.356;30.894;2023-01-10T22:21:27;101402.69;;;-4.48;66.44
43681;BME280;29281;50.356;30.894;2023-01-10T22:22:31;101408.64;;;-4.55;66.64
43681;BME280;29281;50.356;30.894;2023-01-10T22:23:35;101414.69;;;-4.54;67.26
43681;BME280;29281;50.356;30.894;2023-01-10T22:24:38;101397.60;;;-4.39;67.35
43681;BME280;29281;50.356;30.894;2023-01-10T22:25:44;101406.91;;;-4.54;66.94
43681;BME280;29281;50.356;30.894;2023-01-10T22:26:46;101409.55;;;-4.51;67.88
43681;BME280;29281;50.356;30.894;2023-01-10T22:27:52;101412.92;;;-4.57;67.78
43681;BME280;29281;50.356;30.894;2023-01-10T22:28:54;101427.81;;;-4.44;67.85
43681;BME280;29281;50.356;30.894;2023-01-10T22:30:01;101417.33;;;-4.51;67.95
43681;BME280;29281;50.356;30.894;2023-01-10T22:31:03;101420.75;;;-4.54;68.03
43681;BME280;29281;50.356;30.894;2023-01-10T22:32:08;101426.98;;;-4.40;69.10
43681;BME280;29281;50.356;30.894;2023-01-10T22:33:12;101421.86;;;-4.35;69.04
43681;BME280;29281;50.356;30.894;2023-01-10T22:34:15;101411.48;;;-4.35;69.45
43681;BME280;29281;50.356;30.894;2023-01-10T22:35:18;101430.42;;;-4.41;68.28
43681;BME280;29281;50.356;30.894;2023-01-10T22:36:21;101425.09;;;-4.53;68.61
43681;BME280;29281;50.356;30.894;2023-01-10T22:37:27;101430.98;;;-4.65;68.35
43681;BME280;29281;50.356;30.894;2023-01-10T22:38:29;101430.98;;;-4.65;69.41
43681;BME280;29281;50.356;30.894;2023-01-10T22:39:35;101439.63;;;-4.64;69.08
43681;BME280;29281;50.356;30.894;2023-01-10T22:40:37;101433.45;;;-4.72;69.04
43681;BME280;29281;50.356;30.894;2023-01-10T22:41:43;101443.73;;;-4.80;68.75
43681;BME280;29281;50.356;30.894;2023-01-10T22:42:47;101436.87;;;-4.76;69.14
43681;BME280;29281;50.356;30.894;2023-01-10T22:43:52;101438.55;;;-4.80;69.06
43681;BME280;29281;50.356;30.894;2023-01-10T22:44:56;101437.73;;;-4.77;70.50
43681;BME280;29281;50.356;30.894;2023-01-10T22:45:59;101430.75;;;-4.81;69.30
43681;BME280;29281;50.356;30.894;2023-01-10T22:47:02;101442.78;;;-4.85;69.99
43681;BME280;29281;50.356;30.894;2023-01-10T22:48:06;101440.22;;;-4.83;70.36
43681;BME280;29281;50.356;30.894;2023-01-10T22:49:10;101435.86;;;-4.86;70.46
43681;BME280;29281;50.356;30.894;2023-01-10T22:50:14;101433.34;;;-4.81;70.85
43681;BME280;29281;50.356;30.894;2023-01-10T22:51:18;101442.06;;;-4.76;70.23
43681;BME280;29281;50.356;30.894;2023-01-10T22:52:22;101428.26;;;-4.75;70.56
43681;BME280;29281;50.356;30.894;2023-01-10T22:53:25;101434.27;;;-4.78;70.10
43681;BME280;29281;50.356;30.894;2023-01-10T22:54:31;101429.14;;;-4.72;71.20
43681;BME280;29281;50.356;30.894;2023-01-10T22:55:33;101424.06;;;-4.66;71.50
43681;BME280;29281;50.356;30.894;2023-01-10T22:56:37;101432.64;;;-4.70;69.94
43681;BME280;29281;50.356;30.894;2023-01-10T22:57:41;101432.81;;;-4.56;71.37
43681;BME280;29281;50.356;30.894;2023-01-10T22:58:46;101438.05;;;-4.53;71.04
43681;BME280;29281;50.356;30.894;2023-01-10T22:59:50;101441.47;;;-4.55;71.15
43681;BME280;29281;50.356;30.894;2023-01-10T23:00:52;101442.36;;;-4.53;70.42
43681;BME280;29281;50.356;30.894;2023-01-10T23:01:55;101438.00;;;-4.56;69.97
43681;BME280;29281;50.356;30.894;2023-01-10T23:02:58;101454.55;;;-4.48;70.49
43681;BME280;29281;50.356;30.894;2023-01-10T23:04:01;101451.01;;;-4.53;70.53
43681;BME280;29281;50.356;30.894;2023-01-10T23:05:05;101457.16;;;-4.46;70.35
43681;BME280;29281;50.356;30.894;2023-01-10T23:06:07;101452.67;;;-4.59;71.15
43681;BME280;29281;50.356;30.894;2023-01-10T23:07:11;101463.71;;;-4.71;69.57
43681;BME280;29281;50.356;30.894;2023-01-10T23:08:15;101466.42;;;-4.64;69.24
43681;BME280;29281;50.356;30.894;2023-01-10T23:09:17;101460.45;;;-4.56;70.63
43681;BME280;29281;50.356;30.894;2023-01-10T23:10:20;101464.63;;;-4.68;69.05
43681;BME280;29281;50.356;30.894;2023-01-10T23:11:25;101463.90;;;-4.57;69.34
43681;BME280;29281;50.356;30.894;2023-01-10T23:12:29;101460.44;;;-4.58;69.67
43681;BME280;29281;50.356;30.894;2023-01-10T23:13:33;101459.57;;;-4.60;67.90
43681;BME280;29281;50.356;30.894;2023-01-10T23:14:36;101469.79;;;-4.69;68.08
43681;BME280;29281;50.356;30.894;2023-01-10T23:15:44;101465.45;;;-4.70;68.18
43681;BME280;29281;50.356;30.894;2023-01-10T23:16:47;101469.70;;;-4.77;67.60
43681;BME280;29281;50.356;30.894;2023-01-10T23:17:50;101465.50;;;-4.67;66.96
43681;BME280;29281;50.356;30.894;2023-01-10T23:18:54;101459.59;;;-4.57;67.87
43681;BME280;29281;50.356;30.894;2023-01-10T23:19:58;101460.55;;;-4.50;67.67
43681;BME280;29281;50.356;30.894;2023-01-10T23:21:03;101463.84;;;-4.64;66.06
43681;BME280;29281;50.356;30.894;2023-01-10T23:22:06;101453.47;;;-4.64;67.06
43681;BME280;29281;50.356;30.894;2023-01-10T23:23:09;101456.93;;;-4.63;67.08
43681;BME280;29281;50.356;30.894;2023-01-10T23:24:13;101456.98;;;-4.60;66.60
43681;BME280;29281;50.356;30.894;2023-01-10T23:25:18;101461.19;;;-4.67;67.14
43681;BME280;29281;50.356;30.894;2023-01-10T23:26:22;101452.70;;;-4.55;68.00
43681;BME280;29281;50.356;30.894;2023-01-10T23:27:25;101458.72;;;-4.57;66.83
43681;BME280;29281;50.356;30.894;2023-01-10T23:28:34;101458.72;;;-4.59;67.32
43681;BME280;29281;50.356;30.894;2023-01-10T23:29:33;101463.09;;;-4.53;67.74
43681;BME280;29281;50.356;30.894;2023-01-10T23:30:36;101461.47;;;-4.47;68.30
43681;BME280;29281;50.356;30.894;2023-01-10T23:31:47;101457.96;;;-4.50;68.12
43681;BME280;29281;50.356;30.894;2023-01-10T23:32:54;101458.23;;;-4.92;67.11
43681;BME280;29281;50.356;30.894;2023-01-10T23:33:57;101463.42;;;-4.92;68.45
43681;BME280;29281;50.356;30.894;2023-01-10T23:35:01;101463.39;;;-4.94;68.81
43681;BME280;29281;50.356;30.894;2023-01-10T23:36:06;101454.72;;;-4.96;68.94
43681;BME280;29281;50.356;30.894;2023-01-10T23:37:09;101461.64;;;-4.95;68.68
43681;BME280;29281;50.356;30.894;2023-01-10T23:38:12;101463.39;;;-4.94;70.24
43681;BME280;29281;50.356;30.894;2023-01-10T23:39:16;101460.67;;;-5.02;69.31
43681;BME280;29281;50.356;30.894;2023-01-10T23:40:21;101453.82;;;-4.98;69.98
43681;BME280;29281;50.356;30.894;2023-01-10T23:41:27;101470.98;;;-5.06;70.61
43681;BME280;29281;50.356;30.894;2023-01-10T23:42:30;101465.93;;;-4.97;70.81
43681;BME280;29281;50.356;30.894;2023-01-10T23:43:37;101464.23;;;-4.95;71.37
43681;BME280;29281;50.356;30.894;2023-01-10T23:44:43;101459.84;;;-4.99;71.08
43681;BME280;29281;50.356;30.894;2023-01-10T23:45:47;101463.39;;;-4.94;71.50
43681;BME280;29281;50.356;30.894;2023-01-10T23:46:51;101454.72;;;-4.96;71.97
43681;BME280;29281;50.356;30.894;2023-01-10T23:47:54;101462.41;;;-5.01;71.65
43681;BME280;29281;50.356;30.894;2023-01-10T23:49:04;101466.11;;;-4.85;72.22
43681;BME280;29281;50.356;30.894;2023-01-10T23:50:07;101454.81;;;-4.88;72.07
43681;BME280;29281;50.356;30.894;2023-01-10T23:51:11;101464.16;;;-5.00;72.12
43681;BME280;29281;50.356;30.894;2023-01-10T23:52:16;101458.84;;;-5.09;71.69
43681;BME280;29281;50.356;30.894;2023-01-10T23:53:19;101460.72;;;-4.99;71.83
43681;BME280;29281;50.356;30.894;2023-01-10T23:54:22;101459.05;;;-4.95;71.25
43681;BME280;29281;50.356;30.894;2023-01-10T23:55:25;101463.46;;;-4.88;71.35
43681;BME280;29281;50.356;30.894;2023-01-10T23:56:29;101453.92;;;-4.92;70.64
43681;BME280;29281;50.356;30.894;2023-01-10T23:57:31;101469.44;;;-4.93;70.55
43681;BME280;29281;50.356;30.894;2023-01-10T23:58:35;101459.84;;;-4.99;71.09
43681;BME280;29281;50.356;30.894;2023-01-10T23:59:40;101455.62;;;-4.94;71.71
